sensor_id;sensor_type;location;lat;lon;timestamp;temperature;humidity
51486;DHT22;37565;51.352;6.412;2023-02-01T17:55:16;18.20;90.90
51486;DHT22;37565;51.352;6.412;2023-02-01T17:57:44;18.20;91.20
51486;DHT22;37565;51.352;6.412;2023-02-01T18:00:14;18.20;91.20
51486;DHT22;37565;51.352;6.412;2023-02-01T18:02:42;18.20;91.50
51486;DHT22;37565;51.352;6.412;2023-02-01T18:05:17;18.20;91.70
51486;DHT22;37565;51.352;6.412;2023-02-01T18:07:47;18.30;92.00
51486;DHT22;37565;51.352;6.412;2023-02-01T18:10:17;18.40;92.10
51486;DHT22;37565;51.352;6.412;2023-02-01T18:12:45;18.40;92.10
51486;DHT22;37565;51.352;6.412;2023-02-01T18:15:18;18.40;92.10
51486;DHT22;37565;51.352;6.412;2023-02-01T18:17:46;18.50;92.10
51486;DHT22;37565;51.352;6.412;2023-02-01T18:20:17;18.50;92.00
51486;DHT22;37565;51.352;6.412;2023-02-01T18:22:46;18.60;92.00
51486;DHT22;37565;51.352;6.412;2023-02-01T18:25:18;18.60;91.90
51486;DHT22;37565;51.352;6.412;2023-02-01T18:27:48;18.60;91.80
51486;DHT22;37565;51.352;6.412;2023-02-01T18:30:18;18.70;91.80
51486;DHT22;37565;51.352;6.412;2023-02-01T18:32:47;18.70;91.60
51486;DHT22;37565;51.352;6.412;2023-02-01T18:35:18;18.80;91.60
51486;DHT22;37565;51.352;6.412;2023-02-01T18:37:48;18.80;91.50
51486;DHT22;37565;51.352;6.412;2023-02-01T18:40:19;18.80;91.50
51486;DHT22;37565;51.352;6.412;2023-02-01T18:42:48;18.80;91.50
51486;DHT22;37565;51.352;6.412;2023-02-01T18:45:27;18.80;91.40
51486;DHT22;37565;51.352;6.412;2023-02-01T18:47:56;18.80;91.40
51486;DHT22;37565;51.352;6.412;2023-02-01T18:50:26;18.80;91.40
51486;DHT22;37565;51.352;6.412;2023-02-01T18:52:56;18.80;91.40
51486;DHT22;37565;51.352;6.412;2023-02-01T18:55:27;18.80;91.40
51486;DHT22;37565;51.352;6.412;2023-02-01T18:57:56;18.70;91.50
51486;DHT22;37565;51.352;6.412;2023-02-01T19:00:24;18.80;91.30
51486;DHT22;37565;51.352;6.412;2023-02-01T19:02:51;18.80;91.30
51486;DHT22;37565;51.352;6.412;2023-02-01T19:05:20;18.90;91.20
51486;DHT22;37565;51.352;6.412;2023-02-01T19:07:48;18.90;91.30
51486;DHT22;37565;51.352;6.412;2023-02-01T19:10:18;18.90;91.30
51486;DHT22;37565;51.352;6.412;2023-02-01T19:12:49;18.90;91.40
51486;DHT22;37565;51.352;6.412;2023-02-01T19:15:18;18.80;91.40
51486;DHT22;37565;51.352;6.412;2023-02-01T19:17:47;18.80;91.40
51486;DHT22;37565;51.352;6.412;2023-02-01T19:20:18;18.80;91.50
51486;DHT22;37565;51.352;6.412;2023-02-01T19:22:46;18.80;91.50
51486;DHT22;37565;51.352;6.412;2023-02-01T19:25:16;18.80;91.50
51486;DHT22;37565;51.352;6.412;2023-02-01T19:27:44;18.70;91.50
51486;DHT22;37565;51.352;6.412;2023-02-01T19:30:14;18.80;91.50
51486;DHT22;37565;51.352;6.412;2023-02-01T19:32:42;18.80;91.50
51486;DHT22;37565;51.352;6.412;2023-02-01T19:35:15;18.80;91.40
51486;DHT22;37565;51.352;6.412;2023-02-01T19:37:45;18.80;91.40
51486;DHT22;37565;51.352;6.412;2023-02-01T19:40:16;18.80;91.20
51486;DHT22;37565;51.352;6.412;2023-02-01T19:42:45;18.90;91.20
51486;DHT22;37565;51.352;6.412;2023-02-01T19:45:15;18.80;91.30
51486;DHT22;37565;51.352;6.412;2023-02-01T19:47:43;18.80;91.60
51486;DHT22;37565;51.352;6.412;2023-02-01T19:50:15;18.80;91.20
51486;DHT22;37565;51.352;6.412;2023-02-01T19:52:44;18.80;91.20
51486;DHT22;37565;51.352;6.412;2023-02-01T19:55:12;18.80;91.20
51486;DHT22;37565;51.352;6.412;2023-02-01T19:57:40;18.90;91.10
51486;DHT22;37565;51.352;6.412;2023-02-01T20:00:11;19.00;91.10
51486;DHT22;37565;51.352;6.412;2023-02-01T20:02:41;19.00;91.00
51486;DHT22;37565;51.352;6.412;2023-02-01T20:05:10;19.10;90.90
51486;DHT22;37565;51.352;6.412;2023-02-01T20:07:38;19.10;90.80
51486;DHT22;37565;51.352;6.412;2023-02-01T20:10:07;19.10;90.70
51486;DHT22;37565;51.352;6.412;2023-02-01T20:12:36;19.10;90.70
51486;DHT22;37565;51.352;6.412;2023-02-01T20:15:04;19.20;90.70
51486;DHT22;37565;51.352;6.412;2023-02-01T20:17:34;19.20;90.60
51486;DHT22;37565;51.352;6.412;2023-02-01T20:20:04;19.20;90.50
51486;DHT22;37565;51.352;6.412;2023-02-01T20:22:32;19.20;90.40
51486;DHT22;37565;51.352;6.412;2023-02-01T20:25:00;19.30;90.40
51486;DHT22;37565;51.352;6.412;2023-02-01T20:27:30;19.20;90.50
51486;DHT22;37565;51.352;6.412;2023-02-01T20:29:58;19.10;90.60
51486;DHT22;37565;51.352;6.412;2023-02-01T20:32:26;19.10;90.80
51486;DHT22;37565;51.352;6.412;2023-02-01T20:34:54;19.10;90.90
51486;DHT22;37565;51.352;6.412;2023-02-01T20:37:23;19.00;90.90
51486;DHT22;37565;51.352;6.412;2023-02-01T20:39:51;19.00;91.10
51486;DHT22;37565;51.352;6.412;2023-02-01T20:42:20;18.90;91.10
51486;DHT22;37565;51.352;6.412;2023-02-01T20:44:47;18.90;91.20
51486;DHT22;37565;51.352;6.412;2023-02-01T20:47:15;18.90;91.30
51486;DHT22;37565;51.352;6.412;2023-02-01T20:49:43;19.00;91.30
51486;DHT22;37565;51.352;6.412;2023-02-01T20:52:11;18.90;91.30
51486;DHT22;37565;51.352;6.412;2023-02-01T20:54:41;18.90;91.30
51486;DHT22;37565;51.352;6.412;2023-02-01T20:57:09;18.90;91.30
51486;DHT22;37565;51.352;6.412;2023-02-01T20:59:37;18.90;91.40
51486;DHT22;37565;51.352;6.412;2023-02-01T21:02:05;18.90;91.30
51486;DHT22;37565;51.352;6.412;2023-02-01T21:04:34;18.90;91.40
51486;DHT22;37565;51.352;6.412;2023-02-01T21:07:02;18.90;91.40
51486;DHT22;37565;51.352;6.412;2023-02-01T21:09:30;18.90;91.40
51486;DHT22;37565;51.352;6.412;2023-02-01T21:12:00;18.90;91.50
51486;DHT22;37565;51.352;6.412;2023-02-01T21:14:28;18.90;91.50
51486;DHT22;37565;51.352;6.412;2023-02-01T21:16:56;18.90;91.50
51486;DHT22;37565;51.352;6.412;2023-02-01T21:19:24;18.80;91.50
51486;DHT22;37565;51.352;6.412;2023-02-01T21:21:52;18.90;91.40
51486;DHT22;37565;51.352;6.412;2023-02-01T21:24:20;18.90;91.40
51486;DHT22;37565;51.352;6.412;2023-02-01T21:26:48;18.80;91.40
51486;DHT22;37565;51.352;6.412;2023-02-01T21:29:18;18.80;91.40
51486;DHT22;37565;51.352;6.412;2023-02-01T21:31:46;18.80;91.40
51486;DHT22;37565;51.352;6.412;2023-02-01T21:34:14;18.80;91.40
51486;DHT22;37565;51.352;6.412;2023-02-01T21:36:42;18.80;91.40
51486;DHT22;37565;51.352;6.412;2023-02-01T21:39:10;18.90;91.30
51486;DHT22;37565;51.352;6.412;2023-02-01T21:41:38;18.90;91.30
51486;DHT22;37565;51.352;6.412;2023-02-01T21:44:24;18.90;91.30
51486;DHT22;37565;51.352;6.412;2023-02-01T21:46:52;18.90;91.20
51486;DHT22;37565;51.352;6.412;2023-02-01T21:49:21;18.90;91.30
51486;DHT22;37565;51.352;6.412;2023-02-01T21:51:51;19.00;91.20
51486;DHT22;37565;51.352;6.412;2023-02-01T21:54:19;18.90;91.20
51486;DHT22;37565;51.352;6.412;2023-02-01T21:56:47;19.00;91.20
51486;DHT22;37565;51.352;6.412;2023-02-01T21:59:15;18.90;91.30
51486;DHT22;37565;51.352;6.412;2023-02-01T22:01:44;19.00;91.20
51486;DHT22;37565;51.352;6.412;2023-02-01T22:04:12;19.00;91.20
51486;DHT22;37565;51.352;6.412;2023-02-01T22:06:41;18.90;91.40
51486;DHT22;37565;51.352;6.412;2023-02-01T22:09:15;19.00;91.10
51486;DHT22;37565;51.352;6.412;2023-02-01T22:11:43;19.00;91.20
51486;DHT22;37565;51.352;6.412;2023-02-01T22:14:11;19.00;91.20
51486;DHT22;37565;51.352;6.412;2023-02-01T22:16:40;19.00;91.20
51486;DHT22;37565;51.352;6.412;2023-02-01T22:19:09;19.00;91.20
51486;DHT22;37565;51.352;6.412;2023-02-01T22:21:38;19.00;91.20
51486;DHT22;37565;51.352;6.412;2023-02-01T22:24:09;19.00;91.10
51486;DHT22;37565;51.352;6.412;2023-02-01T22:26:37;19.00;91.20
51486;DHT22;37565;51.352;6.412;2023-02-01T22:29:06;19.00;91.20
51486;DHT22;37565;51.352;6.412;2023-02-01T22:31:34;18.90;91.20
51486;DHT22;37565;51.352;6.412;2023-02-01T22:34:02;19.00;91.20
51486;DHT22;37565;51.352;6.412;2023-02-01T22:36:32;19.00;91.20
51486;DHT22;37565;51.352;6.412;2023-02-01T22:39:00;19.00;91.20
51486;DHT22;37565;51.352;6.412;2023-02-01T22:41:28;19.00;91.20
51486;DHT22;37565;51.352;6.412;2023-02-01T22:43:55;19.00;91.10
51486;DHT22;37565;51.352;6.412;2023-02-01T22:46:23;19.00;91.00
51486;DHT22;37565;51.352;6.412;2023-02-01T22:48:52;19.00;90.90
51486;DHT22;37565;51.352;6.412;2023-02-01T22:51:22;19.10;90.90
51486;DHT22;37565;51.352;6.412;2023-02-01T22:53:52;19.10;91.10
51486;DHT22;37565;51.352;6.412;2023-02-01T22:56:24;19.20;90.80
51486;DHT22;37565;51.352;6.412;2023-02-01T22:58:56;19.20;90.70
51486;DHT22;37565;51.352;6.412;2023-02-01T23:01:24;19.20;90.70
51486;DHT22;37565;51.352;6.412;2023-02-01T23:03:55;19.20;90.70
51486;DHT22;37565;51.352;6.412;2023-02-01T23:06:24;19.30;90.70
51486;DHT22;37565;51.352;6.412;2023-02-01T23:08:57;19.30;90.70
51486;DHT22;37565;51.352;6.412;2023-02-01T23:11:26;19.20;90.60
51486;DHT22;37565;51.352;6.412;2023-02-01T23:13:54;19.20;90.70
51486;DHT22;37565;51.352;6.412;2023-02-01T23:16:23;19.20;90.70
51486;DHT22;37565;51.352;6.412;2023-02-01T23:18:51;19.10;90.80
51486;DHT22;37565;51.352;6.412;2023-02-01T23:21:20;19.10;90.90
51486;DHT22;37565;51.352;6.412;2023-02-01T23:23:54;19.10;91.00
51486;DHT22;37565;51.352;6.412;2023-02-01T23:26:25;19.10;91.00
51486;DHT22;37565;51.352;6.412;2023-02-01T23:28:54;19.00;90.90
51486;DHT22;37565;51.352;6.412;2023-02-01T23:31:24;19.00;91.00
51486;DHT22;37565;51.352;6.412;2023-02-01T23:33:53;19.00;91.00
51486;DHT22;37565;51.352;6.412;2023-02-01T23:36:23;19.00;91.00
51486;DHT22;37565;51.352;6.412;2023-02-01T23:38:52;18.90;91.10
51486;DHT22;37565;51.352;6.412;2023-02-01T23:41:22;19.00;91.10
51486;DHT22;37565;51.352;6.412;2023-02-01T23:43:53;19.00;91.00
51486;DHT22;37565;51.352;6.412;2023-02-01T23:46:31;19.00;91.00
51486;DHT22;37565;51.352;6.412;2023-02-01T23:49:01;19.00;91.00
51486;DHT22;37565;51.352;6.412;2023-02-01T23:51:29;19.00;91.00
51486;DHT22;37565;51.352;6.412;2023-02-01T23:53:58;19.10;91.00
51486;DHT22;37565;51.352;6.412;2023-02-01T23:56:29;19.00;90.90
51486;DHT22;37565;51.352;6.412;2023-02-01T23:58:59;19.00;90.90
